sensor_id;sensor_type;location;lat;lon;timestamp;pressure;altitude;pressure_sealevel;temperature;humidity
70900;BME280;67902;52.154;5.430;2023-05-29T00:01:59;102529.63;;;10.75;81.05
70900;BME280;67902;52.154;5.430;2023-05-29T00:04:26;102530.03;;;10.72;81.20
70900;BME280;67902;52.154;5.430;2023-05-29T00:06:52;102529.41;;;10.70;81.01
70900;BME280;67902;52.154;5.430;2023-05-29T00:09:18;102529.00;;;10.67;80.33
70900;BME280;67902;52.154;5.430;2023-05-29T00:11:45;102524.63;;;10.66;81.36
70900;BME280;67902;52.154;5.430;2023-05-29T00:14:20;102529.81;;;10.61;81.07
70900;BME280;67902;52.154;5.430;2023-05-29T00:16:46;102526.47;;;10.59;80.68
70900;BME280;67902;52.154;5.430;2023-05-29T00:19:13;102524.16;;;10.56;80.37
70900;BME280;67902;52.154;5.430;2023-05-29T00:21:40;102527.72;;;10.56;80.80
70900;BME280;67902;52.154;5.430;2023-05-29T00:24:07;102526.25;;;10.54;80.52
70900;BME280;67902;52.154;5.430;2023-05-29T00:26:33;102520.38;;;10.50;81.07
70900;BME280;67902;52.154;5.430;2023-05-29T00:29:00;102520.78;;;10.47;80.86
70900;BME280;67902;52.154;5.430;2023-05-29T00:31:26;102524.56;;;10.46;81.01
70900;BME280;67902;52.154;5.430;2023-05-29T00:33:54;102523.47;;;10.40;80.62
70900;BME280;67902;52.154;5.430;2023-05-29T00:36:21;102540.13;;;10.37;80.82
70900;BME280;67902;52.154;5.430;2023-05-29T00:38:48;102539.50;;;10.35;81.07
70900;BME280;67902;52.154;5.430;2023-05-29T00:41:15;102536.16;;;10.33;81.62
70900;BME280;67902;52.154;5.430;2023-05-29T00:43:43;102542.63;;;10.32;81.32
70900;BME280;67902;52.154;5.430;2023-05-29T00:46:12;102544.25;;;10.33;81.50
70900;BME280;67902;52.154;5.430;2023-05-29T00:48:41;102549.28;;;10.36;81.33
70900;BME280;67902;52.154;5.430;2023-05-29T00:51:10;102553.03;;;10.35;80.88
70900;BME280;67902;52.154;5.430;2023-05-29T00:53:38;102555.50;;;10.30;81.00
70900;BME280;67902;52.154;5.430;2023-05-29T00:56:06;102551.53;;;10.26;80.74
70900;BME280;67902;52.154;5.430;2023-05-29T00:58:33;102552.94;;;10.22;80.99
70900;BME280;67902;52.154;5.430;2023-05-29T01:01:00;102552.09;;;10.15;81.28
70900;BME280;67902;52.154;5.430;2023-05-29T01:03:28;102553.47;;;10.11;82.04
70900;BME280;67902;52.154;5.430;2023-05-29T01:05:54;102558.28;;;10.09;82.17
70900;BME280;67902;52.154;5.430;2023-05-29T01:08:21;102551.81;;;10.10;81.10
70900;BME280;67902;52.154;5.430;2023-05-29T01:10:51;102554.94;;;10.07;81.80
70900;BME280;67902;52.154;5.430;2023-05-29T01:13:23;102551.81;;;10.10;81.38
70900;BME280;67902;52.154;5.430;2023-05-29T01:15:54;102561.59;;;10.05;81.45
70900;BME280;67902;52.154;5.430;2023-05-29T01:21:05;102569.81;;;9.97;81.59
70900;BME280;67902;52.154;5.430;2023-05-29T01:23:44;102579.38;;;9.93;82.06
70900;BME280;67902;52.154;5.430;2023-05-29T01:29:04;102590.16;;;9.86;81.74
70900;BME280;67902;52.154;5.430;2023-05-29T01:31:34;102589.28;;;9.79;82.53
70900;BME280;67902;52.154;5.430;2023-05-29T01:34:01;102583.19;;;9.77;82.17
70900;BME280;67902;52.154;5.430;2023-05-29T01:36:28;102594.03;;;9.77;82.61
70900;BME280;67902;52.154;5.430;2023-05-29T01:38:56;102592.63;;;9.81;82.55
70900;BME280;67902;52.154;5.430;2023-05-29T01:41:24;102593.78;;;9.72;82.65
70900;BME280;67902;52.154;5.430;2023-05-29T01:43:51;102594.84;;;9.71;82.74
70900;BME280;67902;52.154;5.430;2023-05-29T01:46:18;102597.53;;;9.71;82.37
70900;BME280;67902;52.154;5.430;2023-05-29T01:48:46;102596.94;;;9.75;82.39
70900;BME280;67902;52.154;5.430;2023-05-29T01:51:13;102595.47;;;9.73;82.53
70900;BME280;67902;52.154;5.430;2023-05-29T01:53:41;102598.41;;;9.78;82.44
70900;BME280;67902;52.154;5.430;2023-05-29T01:56:08;102602.56;;;9.74;82.67
70900;BME280;67902;52.154;5.430;2023-05-29T01:58:36;102605.00;;;9.69;82.18
70900;BME280;67902;52.154;5.430;2023-05-29T02:01:05;102611.59;;;9.60;82.06
70900;BME280;67902;52.154;5.430;2023-05-29T02:03:33;102607.38;;;9.57;82.93
70900;BME280;67902;52.154;5.430;2023-05-29T02:06:00;102614.00;;;9.55;83.08
70900;BME280;67902;52.154;5.430;2023-05-29T02:08:27;102613.38;;;9.53;83.33
70900;BME280;67902;52.154;5.430;2023-05-29T02:10:53;102617.53;;;9.49;82.87
70900;BME280;67902;52.154;5.430;2023-05-29T02:13:20;102606.69;;;9.49;83.29
70900;BME280;67902;52.154;5.430;2023-05-29T02:15:47;102608.56;;;9.48;83.16
70900;BME280;67902;52.154;5.430;2023-05-29T02:18:15;102604.38;;;9.46;83.42
70900;BME280;67902;52.154;5.430;2023-05-29T02:20:43;102593.75;;;9.44;83.36
70900;BME280;67902;52.154;5.430;2023-05-29T02:23:10;102597.69;;;9.42;82.51
70900;BME280;67902;52.154;5.430;2023-05-29T02:25:36;102595.59;;;9.44;82.96
70900;BME280;67902;52.154;5.430;2023-05-29T02:28:03;102593.66;;;9.38;83.32
70900;BME280;67902;52.154;5.430;2023-05-29T02:30:30;102596.78;;;9.35;83.48
70900;BME280;67902;52.154;5.430;2023-05-29T02:32:57;102603.81;;;9.29;83.45
70900;BME280;67902;52.154;5.430;2023-05-29T02:35:23;102605.38;;;9.23;83.38
70900;BME280;67902;52.154;5.430;2023-05-29T02:37:50;102606.03;;;9.25;84.34
70900;BME280;67902;52.154;5.430;2023-05-29T02:40:18;102608.28;;;9.22;83.84
70900;BME280;67902;52.154;5.430;2023-05-29T02:42:45;102607.81;;;9.18;83.98
70900;BME280;67902;52.154;5.430;2023-05-29T02:45:11;102609.00;;;9.09;84.13
70900;BME280;67902;52.154;5.430;2023-05-29T02:47:38;102605.25;;;9.10;84.33
70900;BME280;67902;52.154;5.430;2023-05-29T02:50:05;102603.38;;;9.11;85.05
70900;BME280;67902;52.154;5.430;2023-05-29T02:52:32;102607.78;;;9.12;84.18
70900;BME280;67902;52.154;5.430;2023-05-29T02:54:58;102605.06;;;9.12;84.45
70900;BME280;67902;52.154;5.430;2023-05-29T02:57:25;102604.88;;;9.13;84.46
70900;BME280;67902;52.154;5.430;2023-05-29T02:59:52;102608.78;;;9.11;84.15
70900;BME280;67902;52.154;5.430;2023-05-29T03:02:18;102612.06;;;9.06;84.73
70900;BME280;67902;52.154;5.430;2023-05-29T03:04:45;102606.00;;;9.04;84.74
70900;BME280;67902;52.154;5.430;2023-05-29T03:07:12;102606.84;;;9.05;84.55
70900;BME280;67902;52.154;5.430;2023-05-29T03:09:39;102605.19;;;9.04;83.83
70900;BME280;67902;52.154;5.430;2023-05-29T03:12:05;102620.09;;;9.00;84.06
70900;BME280;67902;52.154;5.430;2023-05-29T03:14:32;102611.78;;;9.01;84.70
70900;BME280;67902;52.154;5.430;2023-05-29T03:17:05;102609.75;;;9.03;83.82
70900;BME280;67902;52.154;5.430;2023-05-29T03:19:33;102604.53;;;9.02;84.51
70900;BME280;67902;52.154;5.430;2023-05-29T03:22:00;102604.91;;;8.99;84.15
70900;BME280;67902;52.154;5.430;2023-05-29T03:24:27;102598.47;;;9.00;84.81
70900;BME280;67902;52.154;5.430;2023-05-29T03:26:53;102595.94;;;8.98;84.38
70900;BME280;67902;52.154;5.430;2023-05-29T03:29:20;102605.66;;;8.93;84.17
70900;BME280;67902;52.154;5.430;2023-05-29T03:31:46;102605.59;;;8.86;84.51
70900;BME280;67902;52.154;5.430;2023-05-29T03:34:13;102600.19;;;8.86;84.47
70900;BME280;67902;52.154;5.430;2023-05-29T03:36:39;102602.44;;;8.83;84.12
70900;BME280;67902;52.154;5.430;2023-05-29T03:39:06;102598.25;;;8.80;84.85
70900;BME280;67902;52.154;5.430;2023-05-29T03:41:32;102595.53;;;8.80;84.45
70900;BME280;67902;52.154;5.430;2023-05-29T03:43:59;102606.09;;;8.75;84.95
70900;BME280;67902;52.154;5.430;2023-05-29T03:46:25;102603.81;;;8.79;85.04
70900;BME280;67902;52.154;5.430;2023-05-29T03:48:53;102595.91;;;8.77;84.58
70900;BME280;67902;52.154;5.430;2023-05-29T03:51:19;102603.66;;;8.80;85.46
70900;BME280;67902;52.154;5.430;2023-05-29T03:53:46;102606.16;;;8.82;84.57
70900;BME280;67902;52.154;5.430;2023-05-29T03:56:13;102606.59;;;8.85;84.46
70900;BME280;67902;52.154;5.430;2023-05-29T03:58:40;102617.41;;;8.85;84.25
70900;BME280;67902;52.154;5.430;2023-05-29T04:01:06;102603.06;;;8.85;84.69
70900;BME280;67902;52.154;5.430;2023-05-29T04:03:34;102606.22;;;8.88;84.31
70900;BME280;67902;52.154;5.430;2023-05-29T04:06:01;102613.75;;;8.93;84.54
70900;BME280;67902;52.154;5.430;2023-05-29T04:08:28;102611.06;;;8.93;84.73
70900;BME280;67902;52.154;5.430;2023-05-29T04:10:54;102620.47;;;8.97;83.85
70900;BME280;67902;52.154;5.430;2023-05-29T04:13:21;102616.94;;;8.96;84.76
70900;BME280;67902;52.154;5.430;2023-05-29T04:15:48;102618.88;;;9.02;84.39
70900;BME280;67902;52.154;5.430;2023-05-29T04:18:14;102623.25;;;9.03;84.03
70900;BME280;67902;52.154;5.430;2023-05-29T04:20:41;102622.22;;;9.04;84.16
70900;BME280;67902;52.154;5.430;2023-05-29T04:23:08;102632.66;;;9.07;84.44
70900;BME280;67902;52.154;5.430;2023-05-29T04:25:35;102629.94;;;9.07;84.14
70900;BME280;67902;52.154;5.430;2023-05-29T04:28:02;102634.78;;;9.12;83.56
70900;BME280;67902;52.154;5.430;2023-05-29T04:30:29;102629.81;;;9.15;83.89
70900;BME280;67902;52.154;5.430;2023-05-29T04:32:56;102631.59;;;9.23;84.07
70900;BME280;67902;52.154;5.430;2023-05-29T04:35:23;102638.28;;;9.27;83.30
70900;BME280;67902;52.154;5.430;2023-05-29T04:37:50;102637.72;;;9.31;82.84
70900;BME280;67902;52.154;5.430;2023-05-29T04:40:16;102651.13;;;9.40;82.91
70900;BME280;67902;52.154;5.430;2023-05-29T04:42:43;102649.69;;;9.44;83.10
70900;BME280;67902;52.154;5.430;2023-05-29T04:45:13;102654.72;;;9.47;82.84
70900;BME280;67902;52.154;5.430;2023-05-29T04:47:39;102656.66;;;9.53;82.93
70900;BME280;67902;52.154;5.430;2023-05-29T04:50:13;102647.13;;;9.57;82.67
70900;BME280;67902;52.154;5.430;2023-05-29T04:52:39;102647.75;;;9.59;81.98
70900;BME280;67902;52.154;5.430;2023-05-29T04:55:06;102654.06;;;9.66;82.27
70900;BME280;67902;52.154;5.430;2023-05-29T04:57:33;102653.97;;;9.74;81.95
70900;BME280;67902;52.154;5.430;2023-05-29T04:59:59;102654.22;;;9.79;81.89
70900;BME280;67902;52.154;5.430;2023-05-29T05:02:26;102657.16;;;9.84;81.61
70900;BME280;67902;52.154;5.430;2023-05-29T05:04:52;102660.56;;;9.93;82.44
70900;BME280;67902;52.154;5.430;2023-05-29T05:07:19;102667.69;;;10.00;81.26
70900;BME280;67902;52.154;5.430;2023-05-29T05:09:45;102661.06;;;10.03;81.37
70900;BME280;67902;52.154;5.430;2023-05-29T05:12:12;102671.72;;;10.04;81.11
70900;BME280;67902;52.154;5.430;2023-05-29T05:14:38;102665.78;;;10.15;80.36
70900;BME280;67902;52.154;5.430;2023-05-29T05:17:05;102667.94;;;10.26;79.92
70900;BME280;67902;52.154;5.430;2023-05-29T05:19:31;102669.50;;;10.42;79.23
70900;BME280;67902;52.154;5.430;2023-05-29T05:21:58;102672.06;;;10.50;79.67
70900;BME280;67902;52.154;5.430;2023-05-29T05:24:24;102676.91;;;10.61;78.73
70900;BME280;67902;52.154;5.430;2023-05-29T05:26:51;102668.66;;;10.69;78.70
70900;BME280;67902;52.154;5.430;2023-05-29T05:29:17;102669.56;;;10.83;78.22
70900;BME280;67902;52.154;5.430;2023-05-29T05:31:44;102671.25;;;10.90;77.57
70900;BME280;67902;52.154;5.430;2023-05-29T05:34:11;102663.16;;;11.03;77.22
70900;BME280;67902;52.154;5.430;2023-05-29T05:36:37;102670.53;;;11.16;76.96
70900;BME280;67902;52.154;5.430;2023-05-29T05:39:04;102665.13;;;11.16;75.80
70900;BME280;67902;52.154;5.430;2023-05-29T05:41:31;102672.63;;;11.14;76.07
70900;BME280;67902;52.154;5.430;2023-05-29T05:43:57;102667.22;;;11.27;76.40
70900;BME280;67902;52.154;5.430;2023-05-29T05:46:24;102672.28;;;11.43;75.59
70900;BME280;67902;52.154;5.430;2023-05-29T05:48:53;102669.78;;;11.48;74.70
70900;BME280;67902;52.154;5.430;2023-05-29T05:51:23;102674.81;;;11.58;74.87
70900;BME280;67902;52.154;5.430;2023-05-29T05:53:50;102677.72;;;11.56;74.11
70900;BME280;67902;52.154;5.430;2023-05-29T05:56:16;102682.41;;;11.69;73.94
70900;BME280;67902;52.154;5.430;2023-05-29T05:58:43;102682.00;;;11.92;73.79
70900;BME280;67902;52.154;5.430;2023-05-29T06:01:09;102679.09;;;11.87;72.33
70900;BME280;67902;52.154;5.430;2023-05-29T06:03:36;102682.63;;;11.94;72.62
70900;BME280;67902;52.154;5.430;2023-05-29T06:06:04;102680.97;;;12.12;70.84
70900;BME280;67902;52.154;5.430;2023-05-29T06:08:31;102679.31;;;12.18;71.36
70900;BME280;67902;52.154;5.430;2023-05-29T06:10:57;102690.34;;;12.36;71.10
70900;BME280;67902;52.154;5.430;2023-05-29T06:13:23;102686.16;;;12.53;71.15
70900;BME280;67902;52.154;5.430;2023-05-29T06:15:50;102681.47;;;12.80;70.42
70900;BME280;67902;52.154;5.430;2023-05-29T06:18:16;102683.44;;;13.24;69.16
70900;BME280;67902;52.154;5.430;2023-05-29T06:20:43;102676.19;;;13.49;67.53
70900;BME280;67902;52.154;5.430;2023-05-29T06:23:09;102679.09;;;13.54;66.29
70900;BME280;67902;52.154;5.430;2023-05-29T06:25:36;102677.34;;;13.66;66.89
70900;BME280;67902;52.154;5.430;2023-05-29T06:28:03;102679.06;;;13.92;65.71
70900;BME280;67902;52.154;5.430;2023-05-29T06:30:32;102673.38;;;13.93;63.62
70900;BME280;67902;52.154;5.430;2023-05-29T06:32:58;102677.16;;;13.92;64.89
70900;BME280;67902;52.154;5.430;2023-05-29T06:35:24;102676.09;;;13.93;63.60
70900;BME280;67902;52.154;5.430;2023-05-29T06:37:51;102685.06;;;14.01;62.88
70900;BME280;67902;52.154;5.430;2023-05-29T06:40:18;102673.09;;;14.26;61.32
70900;BME280;67902;52.154;5.430;2023-05-29T06:42:44;102688.53;;;14.39;62.20
70900;BME280;67902;52.154;5.430;2023-05-29T06:45:11;102690.53;;;14.68;60.85
70900;BME280;67902;52.154;5.430;2023-05-29T06:47:41;102692.97;;;14.76;60.14
70900;BME280;67902;52.154;5.430;2023-05-29T06:50:08;102700.22;;;14.82;60.51
70900;BME280;67902;52.154;5.430;2023-05-29T06:52:35;102695.00;;;14.99;59.75
70900;BME280;67902;52.154;5.430;2023-05-29T06:55:02;102697.69;;;14.87;58.50
70900;BME280;67902;52.154;5.430;2023-05-29T06:57:29;102699.63;;;14.80;59.05
70900;BME280;67902;52.154;5.430;2023-05-29T06:59:55;102696.38;;;14.72;59.82
70900;BME280;67902;52.154;5.430;2023-05-29T07:02:22;102699.03;;;14.78;59.22
70900;BME280;67902;52.154;5.430;2023-05-29T07:04:48;102692.78;;;14.53;59.03
70900;BME280;67902;52.154;5.430;2023-05-29T07:07:15;102693.41;;;14.30;60.69
70900;BME280;67902;52.154;5.430;2023-05-29T07:09:41;102694.41;;;14.11;60.91
70900;BME280;67902;52.154;5.430;2023-05-29T07:12:08;102700.84;;;14.17;63.02
70900;BME280;67902;52.154;5.430;2023-05-29T07:14:34;102702.41;;;14.31;60.39
70900;BME280;67902;52.154;5.430;2023-05-29T07:17:01;102702.03;;;14.27;61.85
70900;BME280;67902;52.154;5.430;2023-05-29T07:19:27;102697.00;;;14.24;61.30
70900;BME280;67902;52.154;5.430;2023-05-29T07:21:55;102702.03;;;14.27;60.97
70900;BME280;67902;52.154;5.430;2023-05-29T07:24:22;102711.97;;;14.40;61.65
70900;BME280;67902;52.154;5.430;2023-05-29T07:26:48;102704.78;;;14.70;60.65
70900;BME280;67902;52.154;5.430;2023-05-29T07:29:15;102723.28;;;14.86;60.38
70900;BME280;67902;52.154;5.430;2023-05-29T07:31:44;102718.66;;;15.05;58.94
70900;BME280;67902;52.154;5.430;2023-05-29T07:34:10;102714.03;;;15.24;58.40
70900;BME280;67902;52.154;5.430;2023-05-29T07:36:36;102707.47;;;15.43;57.97
70900;BME280;67902;52.154;5.430;2023-05-29T07:39:21;102710.44;;;15.59;58.01
70900;BME280;67902;52.154;5.430;2023-05-29T07:41:48;102705.09;;;15.94;57.25
70900;BME280;67902;52.154;5.430;2023-05-29T07:44:14;102700.72;;;16.05;56.91
70900;BME280;67902;52.154;5.430;2023-05-29T07:46:41;102714.03;;;16.13;57.05
70900;BME280;67902;52.154;5.430;2023-05-29T07:49:07;102704.66;;;16.20;55.61
70900;BME280;67902;52.154;5.430;2023-05-29T07:51:34;102706.09;;;16.35;54.08
70900;BME280;67902;52.154;5.430;2023-05-29T07:54:00;102703.03;;;16.66;55.33
70900;BME280;67902;52.154;5.430;2023-05-29T07:56:27;102709.81;;;16.87;53.34
70900;BME280;67902;52.154;5.430;2023-05-29T07:58:53;102717.91;;;16.70;54.63
70900;BME280;67902;52.154;5.430;2023-05-29T08:01:23;102718.50;;;16.72;53.95
70900;BME280;67902;52.154;5.430;2023-05-29T08:03:49;102717.66;;;16.83;53.20
70900;BME280;67902;52.154;5.430;2023-05-29T08:06:16;102714.34;;;16.69;54.48
70900;BME280;67902;52.154;5.430;2023-05-29T08:08:42;102712.66;;;16.80;52.72
70900;BME280;67902;52.154;5.430;2023-05-29T08:11:09;102710.38;;;17.00;52.94
70900;BME280;67902;52.154;5.430;2023-05-29T08:13:36;102711.56;;;17.32;52.39
70900;BME280;67902;52.154;5.430;2023-05-29T08:16:03;102714.28;;;17.56;53.34
70900;BME280;67902;52.154;5.430;2023-05-29T08:18:31;102713.56;;;17.49;51.42
70900;BME280;67902;52.154;5.430;2023-05-29T08:20:58;102711.47;;;17.67;55.24
70900;BME280;67902;52.154;5.430;2023-05-29T08:23:25;102719.97;;;17.82;51.98
70900;BME280;67902;52.154;5.430;2023-05-29T08:25:52;102719.25;;;17.87;50.74
70900;BME280;67902;52.154;5.430;2023-05-29T08:28:18;102717.88;;;17.73;50.87
70900;BME280;67902;52.154;5.430;2023-05-29T08:30:45;102721.16;;;17.58;52.63
70900;BME280;67902;52.154;5.430;2023-05-29T08:33:11;102717.72;;;17.51;50.05
70900;BME280;67902;52.154;5.430;2023-05-29T08:35:38;102723.69;;;17.60;52.28
70900;BME280;67902;52.154;5.430;2023-05-29T08:38:04;102714.44;;;17.66;53.65
70900;BME280;67902;52.154;5.430;2023-05-29T08:40:31;102710.53;;;17.90;51.63
70900;BME280;67902;52.154;5.430;2023-05-29T08:45:33;102720.97;;;17.76;50.20
70900;BME280;67902;52.154;5.430;2023-05-29T08:48:01;102721.50;;;17.90;49.48
70900;BME280;67902;52.154;5.430;2023-05-29T08:50:27;102723.19;;;18.24;50.10
70900;BME280;67902;52.154;5.430;2023-05-29T08:52:56;102729.75;;;18.23;48.87
70900;BME280;67902;52.154;5.430;2023-05-29T08:55:22;102715.03;;;17.96;49.16
70900;BME280;67902;52.154;5.430;2023-05-29T08:57:50;102717.34;;;18.04;51.38
70900;BME280;67902;52.154;5.430;2023-05-29T09:00:17;102719.59;;;18.40;48.85
70900;BME280;67902;52.154;5.430;2023-05-29T09:02:44;102721.09;;;18.65;49.78
70900;BME280;67902;52.154;5.430;2023-05-29T09:05:12;102719.88;;;18.94;46.65
70900;BME280;67902;52.154;5.430;2023-05-29T09:07:39;102723.91;;;19.08;47.02
70900;BME280;67902;52.154;5.430;2023-05-29T09:10:06;102731.06;;;19.09;47.67
70900;BME280;67902;52.154;5.430;2023-05-29T09:12:33;102727.63;;;18.97;47.33
70900;BME280;67902;52.154;5.430;2023-05-29T09:15:01;102725.50;;;19.04;46.37
70900;BME280;67902;52.154;5.430;2023-05-29T09:17:31;102722.63;;;18.94;48.32
70900;BME280;67902;52.154;5.430;2023-05-29T09:19:59;102725.56;;;19.09;46.50
70900;BME280;67902;52.154;5.430;2023-05-29T09:22:26;102728.25;;;19.26;49.22
70900;BME280;67902;52.154;5.430;2023-05-29T09:24:53;102721.16;;;19.73;48.47
70900;BME280;67902;52.154;5.430;2023-05-29T09:27:21;102730.78;;;19.76;46.80
70900;BME280;67902;52.154;5.430;2023-05-29T09:29:48;102726.53;;;19.90;44.21
70900;BME280;67902;52.154;5.430;2023-05-29T09:32:16;102722.38;;;19.60;46.03
70900;BME280;67902;52.154;5.430;2023-05-29T09:34:43;102722.41;;;19.87;45.96
70900;BME280;67902;52.154;5.430;2023-05-29T09:37:11;102716.13;;;19.97;44.79
70900;BME280;67902;52.154;5.430;2023-05-29T09:39:47;102727.06;;;19.87;46.75
70900;BME280;67902;52.154;5.430;2023-05-29T09:42:14;102720.50;;;19.66;47.60
70900;BME280;67902;52.154;5.430;2023-05-29T09:44:44;102715.09;;;19.49;46.33
70900;BME280;67902;52.154;5.430;2023-05-29T09:47:16;102718.69;;;19.28;47.94
70900;BME280;67902;52.154;5.430;2023-05-29T09:49:44;102722.66;;;19.59;48.27
70900;BME280;67902;52.154;5.430;2023-05-29T09:52:12;102721.16;;;19.73;46.38
70900;BME280;67902;52.154;5.430;2023-05-29T09:54:43;102709.72;;;19.59;46.29
70900;BME280;67902;52.154;5.430;2023-05-29T09:57:14;102710.97;;;19.25;45.93
70900;BME280;67902;52.154;5.430;2023-05-29T09:59:44;102721.09;;;19.25;46.36
70900;BME280;67902;52.154;5.430;2023-05-29T10:02:18;102716.81;;;19.55;46.46
70900;BME280;67902;52.154;5.430;2023-05-29T10:04:44;102718.44;;;19.78;45.07
70900;BME280;67902;52.154;5.430;2023-05-29T10:07:28;102721.66;;;19.70;45.98
70900;BME280;67902;52.154;5.430;2023-05-29T10:09:59;102715.38;;;19.75;45.60
70900;BME280;67902;52.154;5.430;2023-05-29T10:12:29;102708.28;;;19.79;45.82
70900;BME280;67902;52.154;5.430;2023-05-29T10:14:59;102719.53;;;20.04;46.25
70900;BME280;67902;52.154;5.430;2023-05-29T10:17:31;102704.63;;;20.00;46.52
70900;BME280;67902;52.154;5.430;2023-05-29T10:20:01;102704.06;;;19.98;46.67
70900;BME280;67902;52.154;5.430;2023-05-29T10:22:31;102711.16;;;19.94;46.64
70900;BME280;67902;52.154;5.430;2023-05-29T10:24:58;102698.13;;;20.11;44.00
70900;BME280;67902;52.154;5.430;2023-05-29T10:27:26;102697.38;;;19.89;45.83
70900;BME280;67902;52.154;5.430;2023-05-29T10:29:59;102694.09;;;19.92;44.11
70900;BME280;67902;52.154;5.430;2023-05-29T10:32:35;102704.03;;;19.93;45.42
70900;BME280;67902;52.154;5.430;2023-05-29T10:36:07;102695.03;;;20.07;45.26
70900;BME280;67902;52.154;5.430;2023-05-29T10:38:15;102693.22;;;19.86;47.45
70900;BME280;67902;52.154;5.430;2023-05-29T10:40:43;102691.88;;;20.20;45.65
70900;BME280;67902;52.154;5.430;2023-05-29T10:43:30;102691.91;;;20.57;44.46
70900;BME280;67902;52.154;5.430;2023-05-29T10:45:57;102696.88;;;21.12;40.42
70900;BME280;67902;52.154;5.430;2023-05-29T10:50:55;102695.94;;;20.92;39.38
70900;BME280;67902;52.154;5.430;2023-05-29T10:53:27;102693.50;;;21.72;40.62
70900;BME280;67902;52.154;5.430;2023-05-29T10:55:59;102688.50;;;21.84;40.97
70900;BME280;67902;52.154;5.430;2023-05-29T10:58:27;102685.25;;;21.87;41.72
70900;BME280;67902;52.154;5.430;2023-05-29T11:00:54;102677.28;;;22.06;41.97
70900;BME280;67902;52.154;5.430;2023-05-29T11:03:29;102685.16;;;21.47;40.84
70900;BME280;67902;52.154;5.430;2023-05-29T11:05:59;102682.19;;;20.97;42.01
70900;BME280;67902;52.154;5.430;2023-05-29T11:08:36;102685.03;;;21.12;42.11
70900;BME280;67902;52.154;5.430;2023-05-29T11:11:11;102691.16;;;21.34;40.20
70900;BME280;67902;52.154;5.430;2023-05-29T11:13:38;102680.53;;;21.78;38.41
70900;BME280;67902;52.154;5.430;2023-05-29T11:16:35;102691.53;;;21.73;39.74
70900;BME280;67902;52.154;5.430;2023-05-29T11:19:04;102690.22;;;22.31;37.97
70900;BME280;67902;52.154;5.430;2023-05-29T11:24:22;102688.50;;;21.84;38.75
70900;BME280;67902;52.154;5.430;2023-05-29T11:26:54;102676.13;;;22.12;39.07
70900;BME280;67902;52.154;5.430;2023-05-29T11:29:26;102674.50;;;22.06;36.92
70900;BME280;67902;52.154;5.430;2023-05-29T11:32:02;102675.59;;;22.30;39.04
70900;BME280;67902;52.154;5.430;2023-05-29T11:34:30;102677.50;;;22.65;37.87
70900;BME280;67902;52.154;5.430;2023-05-29T11:36:59;102679.41;;;22.49;38.39
70900;BME280;67902;52.154;5.430;2023-05-29T11:39:26;102680.84;;;22.37;39.02
70900;BME280;67902;52.154;5.430;2023-05-29T11:41:53;102684.66;;;22.66;36.24
70900;BME280;67902;52.154;5.430;2023-05-29T11:44:20;102680.84;;;22.37;37.57
70900;BME280;67902;52.154;5.430;2023-05-29T11:46:46;102674.44;;;21.66;39.07
70900;BME280;67902;52.154;5.430;2023-05-29T11:49:13;102689.56;;;21.43;39.06
70900;BME280;67902;52.154;5.430;2023-05-29T11:51:41;102690.63;;;21.32;41.32
70900;BME280;67902;52.154;5.430;2023-05-29T11:54:08;102688.81;;;21.06;42.87
70900;BME280;67902;52.154;5.430;2023-05-29T11:56:34;102676.06;;;20.79;39.90
70900;BME280;67902;52.154;5.430;2023-05-29T11:59:01;102678.53;;;20.81;41.14
70900;BME280;67902;52.154;5.430;2023-05-29T12:01:34;102674.50;;;20.99;41.92
70900;BME280;67902;52.154;5.430;2023-05-29T12:04:01;102685.00;;;21.07;40.41
70900;BME280;67902;52.154;5.430;2023-05-29T12:06:33;102674.78;;;21.02;40.50
70900;BME280;67902;52.154;5.430;2023-05-29T12:09:00;102678.72;;;20.64;39.77
70900;BME280;67902;52.154;5.430;2023-05-29T12:11:28;102688.13;;;20.32;42.29
70900;BME280;67902;52.154;5.430;2023-05-29T12:13:56;102684.69;;;20.51;41.92
70900;BME280;67902;52.154;5.430;2023-05-29T12:16:23;102678.19;;;20.67;41.66
70900;BME280;67902;52.154;5.430;2023-05-29T12:18:50;102687.03;;;21.26;42.41
70900;BME280;67902;52.154;5.430;2023-05-29T12:21:16;102677.41;;;21.39;40.55
70900;BME280;67902;52.154;5.430;2023-05-29T12:23:43;102673.53;;;21.30;41.10
70900;BME280;67902;52.154;5.430;2023-05-29T12:26:09;102678.47;;;21.23;43.19
70900;BME280;67902;52.154;5.430;2023-05-29T12:28:42;102684.25;;;21.16;41.03
70900;BME280;67902;52.154;5.430;2023-05-29T12:31:09;102682.81;;;21.14;41.53
70900;BME280;67902;52.154;5.430;2023-05-29T12:33:36;102674.50;;;21.04;39.21
70900;BME280;67902;52.154;5.430;2023-05-29T12:36:04;102671.63;;;20.73;38.77
70900;BME280;67902;52.154;5.430;2023-05-29T12:38:33;102666.28;;;21.14;41.26
70900;BME280;67902;52.154;5.430;2023-05-29T12:40:59;102675.88;;;22.04;38.31
70900;BME280;67902;52.154;5.430;2023-05-29T12:43:26;102670.25;;;22.79;37.46
70900;BME280;67902;52.154;5.430;2023-05-29T12:45:56;102663.84;;;22.94;37.35
70900;BME280;67902;52.154;5.430;2023-05-29T12:48:26;102660.25;;;22.93;38.04
70900;BME280;67902;52.154;5.430;2023-05-29T12:50:53;102668.69;;;23.22;35.84
70900;BME280;67902;52.154;5.430;2023-05-29T12:53:19;102660.66;;;23.26;36.57
70900;BME280;67902;52.154;5.430;2023-05-29T12:55:46;102666.16;;;23.31;39.85
70900;BME280;67902;52.154;5.430;2023-05-29T12:58:15;102655.06;;;23.36;36.49
70900;BME280;67902;52.154;5.430;2023-05-29T13:00:46;102661.47;;;22.52;38.16
70900;BME280;67902;52.154;5.430;2023-05-29T13:03:13;102667.03;;;22.37;38.89
70900;BME280;67902;52.154;5.430;2023-05-29T13:05:41;102659.78;;;22.71;39.22
70900;BME280;67902;52.154;5.430;2023-05-29T13:08:07;102662.16;;;23.03;37.03
70900;BME280;67902;52.154;5.430;2023-05-29T13:10:34;102659.97;;;22.95;38.77